createdAt,value
2022-09-15T00:01:41.048Z,13.56
2022-09-15T00:04:08.109Z,13.58
2022-09-15T00:06:34.872Z,13.60
2022-09-15T00:09:01.953Z,13.54
2022-09-15T00:11:30.077Z,13.52
2022-09-15T00:13:57.376Z,13.46
2022-09-15T00:16:24.711Z,13.44
2022-09-15T00:18:51.229Z,13.44
2022-09-15T00:21:23.083Z,13.44
2022-09-15T00:23:49.653Z,13.36
2022-09-15T00:26:18.548Z,13.36
2022-09-15T00:28:45.173Z,13.34
2022-09-15T00:31:14.125Z,13.29
2022-09-15T00:33:40.653Z,13.27
2022-09-15T00:36:08.591Z,13.29
2022-09-15T00:38:35.208Z,13.28
2022-09-15T00:41:02.004Z,13.26
2022-09-15T00:43:59.796Z,13.29
2022-09-15T00:46:37.053Z,13.26
2022-09-15T00:49:03.434Z,13.17
2022-09-15T00:51:50.073Z,13.18
2022-09-15T00:54:19.125Z,13.16
2022-09-15T00:56:46.771Z,13.23
2022-09-15T00:59:17.936Z,13.23
2022-09-15T01:01:44.410Z,13.13
2022-09-15T01:04:10.955Z,13.13
2022-09-15T01:06:41.091Z,13.12
2022-09-15T01:09:26.201Z,13.06
2022-09-15T01:11:52.565Z,13.06
2022-09-15T01:14:19.034Z,13.06
2022-09-15T01:16:48.448Z,13.08
2022-09-15T01:19:27.060Z,13.07
2022-09-15T01:22:05.996Z,13.11
2022-09-15T01:24:42.835Z,13.10
2022-09-15T01:27:30.906Z,13.08
2022-09-15T01:30:22.503Z,13.06
2022-09-15T01:33:03.978Z,13.07
2022-09-15T01:35:42.425Z,13.06
2022-09-15T01:38:27.617Z,12.97
2022-09-15T01:41:05.392Z,12.90
2022-09-15T01:43:31.793Z,12.86
2022-09-15T01:45:58.297Z,12.87
2022-09-15T01:48:25.379Z,12.86
2022-09-15T01:50:55.021Z,12.86
2022-09-15T01:53:22.857Z,12.84
2022-09-15T01:56:00.164Z,12.78
2022-09-15T01:58:26.598Z,12.75
2022-09-15T02:00:57.575Z,12.74
2022-09-15T02:03:33.135Z,12.71
2022-09-15T02:06:03.937Z,12.67
2022-09-15T02:08:47.684Z,12.74
2022-09-15T02:11:21.231Z,12.73
2022-09-15T02:13:59.750Z,12.69
2022-09-15T02:16:28.180Z,12.58
2022-09-15T02:19:03.887Z,12.63
2022-09-15T02:21:33.652Z,12.66
2022-09-15T02:24:07.398Z,12.67
2022-09-15T02:26:34.071Z,12.64
2022-09-15T02:29:01.055Z,12.63
2022-09-15T02:31:27.451Z,12.61
2022-09-15T02:33:57.283Z,12.56
2022-09-15T02:36:23.667Z,12.57
2022-09-15T02:38:53.156Z,12.62
2022-09-15T02:41:19.674Z,12.59
2022-09-15T02:43:49.457Z,12.57
2022-09-15T02:46:17.114Z,12.56
2022-09-15T02:48:43.556Z,12.56
2022-09-15T02:51:09.999Z,12.48
2022-09-15T02:53:36.575Z,12.48
2022-09-15T02:56:05.947Z,12.45
2022-09-15T02:58:33.413Z,12.52
2022-09-15T03:01:04.594Z,12.51
2022-09-15T03:03:32.130Z,12.54
2022-09-15T03:06:17.446Z,12.49
2022-09-15T03:08:45.210Z,12.45
2022-09-15T03:11:12.145Z,12.38
2022-09-15T03:13:38.997Z,12.38
2022-09-15T03:16:09.926Z,12.38
2022-09-15T03:18:37.603Z,12.38
2022-09-15T03:21:05.309Z,12.41
2022-09-15T03:23:32.269Z,12.37
2022-09-15T03:26:01.474Z,12.32
2022-09-15T03:28:28.072Z,12.31
2022-09-15T03:30:54.761Z,12.32
2022-09-15T03:33:21.783Z,12.28
2022-09-15T03:35:48.916Z,12.21
2022-09-15T03:38:15.472Z,12.22
2022-09-15T03:40:45.033Z,12.19
2022-09-15T03:43:15.453Z,12.22
2022-09-15T03:45:45.078Z,12.21
2022-09-15T03:48:11.515Z,12.18
2022-09-15T03:50:37.905Z,12.14
2022-09-15T03:53:04.315Z,12.16
2022-09-15T03:55:30.736Z,12.18
2022-09-15T03:57:57.178Z,12.22
2022-09-15T04:00:23.698Z,12.22
2022-09-15T04:02:50.596Z,12.21
2022-09-15T04:05:17.123Z,12.19
2022-09-15T04:07:43.514Z,12.16
2022-09-15T04:10:09.981Z,12.14
2022-09-15T04:12:36.403Z,12.07
2022-09-15T04:15:03.921Z,12.06
2022-09-15T04:17:30.302Z,12.17
2022-09-15T04:19:56.724Z,12.20
2022-09-15T04:22:23.895Z,12.21
2022-09-15T04:24:50.326Z,12.14
2022-09-15T04:27:17.019Z,12.06
2022-09-15T04:29:43.598Z,12.06
2022-09-15T04:32:09.994Z,12.11
2022-09-15T04:34:41.475Z,12.03
2022-09-15T04:37:08.070Z,12.03
2022-09-15T04:39:34.443Z,12.10
2022-09-15T04:42:01.082Z,12.08
2022-09-15T04:44:27.453Z,12.09
2022-09-15T04:46:54.311Z,12.15
2022-09-15T04:49:20.855Z,12.14
2022-09-15T04:51:47.212Z,12.18
2022-09-15T04:54:13.633Z,12.17
2022-09-15T04:56:40.044Z,12.24
2022-09-15T04:59:06.423Z,12.20
2022-09-15T05:01:33.993Z,12.21
2022-09-15T05:04:01.944Z,12.23
2022-09-15T05:06:28.339Z,12.22
2022-09-15T05:08:56.434Z,12.20
2022-09-15T05:11:23.024Z,12.22
2022-09-15T05:13:49.505Z,12.30
2022-09-15T05:16:23.356Z,12.28
2022-09-15T05:18:50.559Z,12.31
2022-09-15T05:21:18.280Z,12.33
2022-09-15T05:23:44.771Z,12.41
2022-09-15T05:26:15.765Z,12.50
2022-09-15T05:28:42.287Z,12.55
2022-09-15T05:31:21.022Z,12.60
2022-09-15T05:33:48.045Z,12.55
2022-09-15T05:36:15.158Z,12.59
2022-09-15T05:38:41.633Z,12.56
2022-09-15T05:41:12.034Z,12.57
2022-09-15T05:43:39.102Z,12.60
2022-09-15T05:46:06.411Z,12.70
2022-09-15T05:48:33.043Z,12.69
2022-09-15T05:50:59.616Z,12.72
2022-09-15T05:53:26.135Z,12.77
2022-09-15T05:55:59.208Z,12.83
2022-09-15T05:58:26.207Z,12.90
2022-09-15T06:00:53.374Z,12.94
2022-09-15T06:03:20.110Z,12.91
2022-09-15T06:05:46.721Z,12.85
2022-09-15T06:08:13.219Z,12.95
2022-09-15T06:10:39.675Z,13.02
2022-09-15T06:13:06.128Z,13.00
2022-09-15T06:15:32.667Z,13.07
2022-09-15T06:17:59.061Z,13.08
2022-09-15T06:20:25.567Z,13.12
2022-09-15T06:22:53.043Z,13.19
2022-09-15T06:25:19.450Z,13.17
2022-09-15T06:27:46.575Z,13.20
2022-09-15T06:30:13.373Z,13.24
2022-09-15T06:32:39.771Z,13.29
2022-09-15T06:35:07.117Z,13.31
2022-09-15T06:37:34.320Z,13.40
2022-09-15T06:40:00.990Z,13.43
2022-09-15T06:42:27.466Z,13.43
2022-09-15T06:44:53.964Z,13.52
2022-09-15T06:47:20.365Z,13.59
2022-09-15T06:49:46.726Z,13.76
2022-09-15T06:52:13.114Z,13.78
2022-09-15T06:54:39.515Z,13.82
2022-09-15T06:57:06.046Z,13.76
2022-09-15T06:59:32.456Z,13.85
2022-09-15T07:02:04.136Z,13.89
2022-09-15T07:04:31.430Z,13.83
2022-09-15T07:06:57.793Z,13.87
2022-09-15T07:09:24.184Z,13.81
2022-09-15T07:11:50.647Z,13.93
2022-09-15T07:14:17.036Z,13.98
2022-09-15T07:16:43.525Z,14.01
2022-09-15T07:19:12.598Z,14.09
2022-09-15T07:21:38.978Z,14.13
2022-09-15T07:24:07.530Z,14.16
2022-09-15T07:26:34.262Z,14.27
2022-09-15T07:29:02.138Z,14.30
2022-09-15T07:31:30.119Z,14.31
2022-09-15T07:33:57.220Z,14.38
2022-09-15T07:36:23.591Z,14.42
2022-09-15T07:38:50.056Z,14.41
2022-09-15T07:41:27.434Z,14.54
2022-09-15T07:43:55.173Z,14.59
2022-09-15T07:46:22.956Z,14.49
2022-09-15T07:48:50.424Z,14.46
2022-09-15T07:51:16.985Z,14.49
2022-09-15T07:53:44.252Z,14.43
2022-09-15T07:56:10.679Z,14.47
2022-09-15T07:58:37.063Z,14.60
2022-09-15T08:01:04.896Z,14.61
2022-09-15T08:03:31.477Z,14.58
2022-09-15T08:06:01.578Z,14.69
2022-09-15T08:08:28.147Z,14.84
2022-09-15T08:10:54.705Z,14.91
2022-09-15T08:13:21.156Z,14.95
2022-09-15T08:15:48.144Z,14.89
2022-09-15T08:18:14.864Z,15.01
2022-09-15T08:20:41.761Z,15.13
2022-09-15T08:23:08.191Z,15.13
2022-09-15T08:25:34.562Z,15.11
2022-09-15T08:28:01.222Z,15.07
2022-09-15T08:30:27.726Z,15.17
2022-09-15T08:32:54.106Z,15.02
2022-09-15T08:35:20.499Z,15.14
2022-09-15T08:37:47.054Z,15.14
2022-09-15T08:40:17.984Z,15.21
2022-09-15T08:42:45.176Z,15.20
2022-09-15T08:45:26.423Z,15.25
2022-09-15T08:47:56.071Z,15.35
2022-09-15T08:50:27.291Z,15.36
2022-09-15T08:53:14.139Z,15.34
2022-09-15T08:55:54.194Z,15.33
2022-09-15T08:58:25.445Z,15.34
2022-09-15T09:01:05.451Z,15.36
2022-09-15T09:04:08.260Z,15.41
2022-09-15T09:06:52.987Z,15.42
2022-09-15T09:09:28.317Z,15.46
2022-09-15T09:12:06.966Z,15.59
2022-09-15T09:14:39.763Z,15.67
2022-09-15T09:17:18.833Z,15.77
2022-09-15T09:20:11.923Z,15.74
2022-09-15T09:22:39.689Z,16.00
2022-09-15T09:25:21.440Z,16.12
2022-09-15T09:27:52.582Z,16.16
2022-09-15T09:30:20.674Z,16.14
2022-09-15T09:32:55.729Z,16.06
2022-09-15T09:35:43.593Z,16.14
2022-09-15T09:38:10.603Z,16.19
2022-09-15T09:40:41.040Z,16.22
2022-09-15T09:43:07.973Z,16.22
2022-09-15T09:45:34.344Z,16.23
2022-09-15T09:48:27.334Z,16.36
2022-09-15T09:50:54.892Z,16.52
2022-09-15T09:53:31.776Z,16.68
2022-09-15T09:56:23.057Z,16.73
2022-09-15T09:58:49.656Z,16.72
2022-09-15T10:01:21.048Z,16.87
2022-09-15T10:03:47.503Z,16.93
2022-09-15T10:06:18.981Z,16.88
2022-09-15T10:08:58.878Z,16.87
2022-09-15T10:11:38.893Z,16.86
2022-09-15T10:14:05.300Z,16.79
2022-09-15T10:16:32.240Z,16.71
2022-09-15T10:18:58.677Z,16.69
2022-09-15T10:21:25.151Z,16.64
2022-09-15T10:23:51.696Z,16.87
2022-09-15T10:26:23.417Z,17.06
2022-09-15T10:29:17.931Z,17.21
2022-09-15T10:31:45.245Z,17.34
2022-09-15T10:34:31.140Z,17.45
2022-09-15T10:37:13.104Z,17.45
2022-09-15T10:39:53.684Z,17.50
2022-09-15T10:42:48.095Z,17.38
2022-09-15T10:45:43.215Z,17.35
2022-09-15T10:48:49.133Z,17.43
2022-09-15T10:51:26.775Z,17.60
2022-09-15T10:53:59.048Z,17.62
2022-09-15T10:56:29.940Z,17.66
2022-09-15T10:59:29.087Z,17.64
2022-09-15T11:02:32.259Z,17.50
2022-09-15T11:05:13.906Z,17.61
2022-09-15T11:08:02.667Z,17.71
2022-09-15T11:10:39.705Z,17.71
2022-09-15T11:13:29.647Z,17.50
2022-09-15T11:15:59.154Z,17.47
2022-09-15T11:18:44.647Z,17.45
2022-09-15T11:21:43.173Z,17.56
2022-09-15T11:24:28.355Z,17.56
2022-09-15T11:27:05.431Z,17.66
2022-09-15T11:29:40.410Z,17.88
2022-09-15T11:32:12.580Z,18.33
2022-09-15T11:34:42.655Z,18.65
2022-09-15T11:37:17.394Z,18.70
2022-09-15T11:39:55.128Z,18.61
2022-09-15T11:42:58.323Z,18.31
2022-09-15T11:45:26.720Z,18.07
2022-09-15T11:47:55.934Z,17.88
2022-09-15T11:50:30.006Z,17.84
2022-09-15T11:53:18.246Z,17.72
2022-09-15T11:55:49.650Z,17.85
2022-09-15T11:58:42.991Z,17.76
2022-09-15T12:01:52.341Z,17.61
2022-09-15T12:04:40.877Z,17.65
2022-09-15T12:07:14.669Z,17.72
2022-09-15T12:09:41.323Z,17.87
2022-09-15T12:12:12.447Z,18.03
2022-09-15T12:14:43.231Z,18.31
2022-09-15T12:17:18.444Z,18.54
2022-09-15T12:19:55.745Z,18.52
2022-09-15T12:22:43.664Z,19.09
2022-09-15T12:25:24.755Z,18.83
2022-09-15T12:28:22.265Z,18.58
2022-09-15T12:31:07.799Z,18.38
2022-09-15T12:33:43.422Z,18.10
2022-09-15T12:36:44.533Z,17.96
2022-09-15T12:39:36.237Z,17.73
2022-09-15T12:42:14.864Z,17.68
2022-09-15T12:44:57.344Z,17.44
2022-09-15T12:47:26.654Z,17.33
2022-09-15T12:49:53.527Z,17.29
2022-09-15T12:52:20.635Z,17.44
2022-09-15T12:54:58.273Z,17.65
2022-09-15T12:57:28.367Z,17.67
2022-09-15T13:00:32.851Z,17.76
2022-09-15T13:02:59.401Z,17.70
2022-09-15T13:05:41.115Z,17.86
2022-09-15T13:08:22.667Z,18.01
2022-09-15T13:11:17.187Z,18.07
2022-09-15T13:14:08.099Z,18.54
2022-09-15T13:16:39.287Z,18.35
2022-09-15T13:19:12.321Z,18.13
2022-09-15T13:21:39.597Z,18.28
2022-09-15T13:24:07.505Z,18.73
2022-09-15T13:26:33.908Z,19.49
2022-09-15T13:29:00.338Z,19.84
2022-09-15T13:31:34.352Z,20.56
2022-09-15T13:40:50.463Z,20.32
2022-09-15T13:43:40.981Z,20.77
2022-09-15T13:46:26.143Z,20.76
2022-09-15T13:49:03.668Z,20.89
2022-09-15T13:51:30.500Z,20.68
2022-09-15T13:54:04.203Z,20.77
2022-09-15T13:56:40.602Z,21.35
2022-09-15T13:59:15.470Z,21.57
2022-09-15T14:01:43.107Z,21.21
2022-09-15T14:04:12.781Z,21.62
2022-09-15T14:06:41.246Z,21.24
2022-09-15T14:09:15.006Z,21.06
2022-09-15T14:11:41.519Z,20.71
2022-09-15T14:14:27.121Z,21.18
2022-09-15T14:16:54.653Z,21.19
2022-09-15T14:19:34.434Z,20.73
2022-09-15T14:22:02.236Z,20.67
2022-09-15T14:24:30.260Z,20.99
2022-09-15T14:27:01.458Z,21.03
2022-09-15T14:29:27.938Z,20.94
2022-09-15T14:31:54.650Z,20.56
2022-09-15T14:34:22.489Z,20.37
2022-09-15T14:37:06.170Z,20.18
2022-09-15T14:39:33.571Z,19.62
2022-09-15T14:42:21.162Z,19.47
2022-09-15T14:47:34.483Z,19.13
2022-09-15T14:50:16.993Z,18.84
2022-09-15T14:52:48.392Z,18.69
2022-09-15T14:55:29.322Z,19.55
2022-09-15T14:57:59.888Z,19.48
2022-09-15T15:00:29.863Z,19.41
2022-09-15T15:02:59.056Z,19.53
2022-09-15T15:05:46.621Z,19.41
2022-09-15T15:08:18.760Z,19.40
2022-09-15T15:10:45.260Z,19.44
2022-09-15T15:13:15.268Z,19.34
2022-09-15T15:15:41.645Z,19.52
2022-09-15T15:18:32.233Z,19.42
2022-09-15T15:20:59.022Z,19.55
2022-09-15T15:23:25.769Z,19.93
2022-09-15T15:25:52.702Z,20.06
2022-09-15T15:28:31.380Z,20.46
2022-09-15T15:31:21.768Z,20.55
2022-09-15T15:34:05.370Z,20.29
2022-09-15T15:36:33.164Z,19.93
2022-09-15T15:39:05.319Z,19.62
2022-09-15T15:41:37.195Z,19.42
2022-09-15T15:44:22.517Z,19.18
2022-09-15T15:47:13.876Z,19.22
2022-09-15T15:50:02.246Z,19.12
2022-09-15T15:52:26.612Z,19.02
2022-09-15T15:54:53.195Z,19.10
2022-09-15T15:57:21.746Z,18.96
2022-09-15T15:59:48.129Z,18.95
2022-09-15T16:02:14.601Z,18.89
2022-09-15T16:04:41.020Z,18.87
2022-09-15T16:07:10.327Z,18.92
2022-09-15T16:09:36.756Z,18.69
2022-09-15T16:12:03.209Z,18.57
2022-09-15T16:14:29.596Z,18.51
2022-09-15T16:16:58.289Z,18.50
2022-09-15T16:19:24.732Z,18.32
2022-09-15T16:21:51.173Z,18.35
2022-09-15T16:24:17.583Z,18.07
2022-09-15T16:26:44.318Z,17.92
2022-09-15T16:29:10.888Z,17.62
2022-09-15T16:31:37.504Z,17.30
2022-09-15T16:34:04.029Z,16.93
2022-09-15T16:36:31.132Z,16.55
2022-09-15T16:38:57.531Z,16.43
2022-09-15T16:41:25.508Z,16.42
2022-09-15T16:43:53.202Z,16.27
2022-09-15T16:46:20.219Z,16.20
2022-09-15T16:48:49.499Z,16.19
2022-09-15T16:51:29.498Z,16.18
2022-09-15T16:53:57.203Z,16.16
2022-09-15T16:56:23.627Z,16.16
2022-09-15T16:58:54.788Z,16.17
2022-09-15T17:01:24.939Z,16.20
2022-09-15T17:03:51.327Z,16.22
2022-09-15T17:06:18.072Z,16.24
2022-09-15T17:08:44.531Z,16.11
2022-09-15T17:11:16.600Z,15.86
2022-09-15T17:13:43.367Z,15.86
2022-09-15T17:16:10.156Z,15.79
2022-09-15T17:18:36.555Z,15.78
2022-09-15T17:21:03.018Z,15.79
2022-09-15T17:23:29.369Z,15.80
2022-09-15T17:25:58.425Z,15.76
2022-09-15T17:28:26.585Z,15.75
2022-09-15T17:30:58.677Z,15.74
2022-09-15T17:33:25.245Z,15.70
2022-09-15T17:35:51.764Z,15.67
2022-09-15T17:38:20.303Z,15.52
2022-09-15T17:40:50.390Z,15.52
2022-09-15T17:43:20.966Z,15.53
2022-09-15T17:45:47.623Z,15.60
2022-09-15T17:48:14.053Z,15.60
2022-09-15T17:50:41.753Z,15.58
2022-09-15T17:53:26.526Z,15.64
2022-09-15T17:55:54.521Z,15.60
2022-09-15T17:58:21.556Z,15.52
2022-09-15T18:00:48.174Z,15.48
2022-09-15T18:03:29.926Z,15.38
2022-09-15T18:05:58.246Z,15.38
2022-09-15T18:08:25.140Z,15.36
2022-09-15T18:10:51.549Z,15.34
2022-09-15T18:13:20.340Z,15.33
2022-09-15T18:15:47.013Z,15.26
2022-09-15T18:18:32.043Z,15.21
2022-09-15T18:20:58.433Z,15.30
2022-09-15T18:23:26.420Z,15.16
2022-09-15T18:25:52.866Z,15.25
2022-09-15T18:28:19.393Z,15.31
2022-09-15T18:30:47.358Z,15.30
2022-09-15T18:33:21.718Z,15.33
2022-09-15T18:35:49.229Z,15.35
2022-09-15T18:38:15.884Z,15.34
2022-09-15T18:40:53.238Z,15.34
2022-09-15T18:43:20.254Z,15.33
2022-09-15T18:45:46.761Z,15.37
2022-09-15T18:48:13.388Z,15.36
2022-09-15T18:50:40.432Z,15.34
2022-09-15T18:53:06.906Z,15.31
2022-09-15T18:55:33.350Z,15.29
2022-09-15T18:58:01.114Z,15.29
2022-09-15T19:00:28.647Z,15.32
2022-09-15T19:02:59.093Z,15.28
2022-09-15T19:05:26.052Z,15.33
2022-09-15T19:07:52.819Z,15.35
2022-09-15T19:10:19.323Z,15.32
2022-09-15T19:12:45.711Z,15.22
2022-09-15T19:15:12.523Z,15.17
2022-09-15T19:17:39.508Z,14.98
2022-09-15T19:20:07.029Z,14.90
2022-09-15T19:22:33.676Z,14.86
2022-09-15T19:25:00.061Z,14.85
2022-09-15T19:27:26.461Z,14.88
2022-09-15T19:29:52.852Z,14.83
2022-09-15T19:32:19.354Z,14.85
2022-09-15T19:34:46.930Z,14.81
2022-09-15T19:37:18.456Z,14.78
2022-09-15T19:39:45.672Z,14.85
2022-09-15T19:42:12.335Z,14.89
2022-09-15T19:44:38.800Z,14.91
2022-09-15T19:47:05.164Z,14.83
2022-09-15T19:49:31.555Z,14.83
2022-09-15T19:51:57.929Z,14.85
2022-09-15T19:54:25.764Z,14.74
2022-09-15T19:56:52.341Z,14.72
2022-09-15T19:59:19.163Z,14.65
2022-09-15T20:01:45.944Z,14.68
2022-09-15T20:04:12.593Z,14.65
2022-09-15T20:06:39.200Z,14.58
2022-09-15T20:09:06.798Z,14.55
2022-09-15T20:11:33.330Z,14.52
2022-09-15T20:13:59.895Z,14.42
2022-09-15T20:16:26.494Z,14.43
2022-09-15T20:18:54.030Z,14.37
2022-09-15T20:21:45.961Z,14.37
2022-09-15T20:24:12.257Z,14.31
2022-09-15T20:26:38.854Z,14.29
2022-09-15T20:29:05.337Z,14.24
2022-09-15T20:31:34.917Z,14.11
2022-09-15T20:34:02.165Z,14.08
2022-09-15T20:36:30.433Z,14.05
2022-09-15T20:38:56.968Z,14.03
2022-09-15T20:41:24.645Z,13.93
2022-09-15T20:43:51.317Z,13.93
2022-09-15T20:46:19.380Z,13.99
2022-09-15T20:48:46.493Z,13.93
2022-09-15T20:51:16.688Z,14.00
2022-09-15T20:53:44.648Z,13.95
2022-09-15T20:56:11.732Z,13.93
2022-09-15T20:58:38.451Z,13.92
2022-09-15T21:01:35.265Z,13.93
2022-09-15T21:04:01.899Z,13.94
2022-09-15T21:06:28.642Z,14.00
2022-09-15T21:08:56.467Z,13.93
2022-09-15T21:11:23.916Z,13.85
2022-09-15T21:13:50.431Z,13.79
2022-09-15T21:16:18.421Z,13.78
2022-09-15T21:18:45.156Z,13.72
2022-09-15T21:21:12.881Z,13.71
2022-09-15T21:23:43.117Z,13.70
2022-09-15T21:26:11.235Z,13.65
2022-09-15T21:28:38.544Z,13.67
2022-09-15T21:31:12.692Z,13.63
2022-09-15T21:33:39.235Z,13.61
2022-09-15T21:36:10.827Z,13.58
2022-09-15T21:38:38.473Z,13.59
2022-09-15T21:41:06.046Z,13.52
2022-09-15T21:43:35.953Z,13.50
2022-09-15T21:46:06.605Z,13.58
2022-09-15T21:48:33.885Z,13.57
2022-09-15T21:51:00.594Z,13.65
2022-09-15T21:53:27.029Z,13.67
2022-09-15T21:55:53.445Z,13.63
2022-09-15T21:58:26.053Z,13.60
2022-09-15T22:00:52.866Z,13.47
2022-09-15T22:03:19.351Z,13.52
2022-09-15T22:05:46.521Z,13.58
2022-09-15T22:08:13.814Z,13.61
2022-09-15T22:10:40.703Z,13.55
2022-09-15T22:13:08.012Z,13.56
2022-09-15T22:15:34.529Z,13.60
2022-09-15T22:18:01.051Z,13.54
2022-09-15T22:20:28.032Z,13.56
2022-09-15T22:22:55.993Z,13.55
2022-09-15T22:25:22.616Z,13.61
2022-09-15T22:27:49.002Z,13.54
2022-09-15T22:30:15.505Z,13.58
2022-09-15T22:32:41.895Z,13.53
2022-09-15T22:35:08.556Z,13.53
2022-09-15T22:37:35.100Z,13.50
2022-09-15T22:40:01.944Z,13.54
2022-09-15T22:42:28.398Z,13.52
2022-09-15T22:44:54.832Z,13.51
2022-09-15T22:47:21.493Z,13.48
2022-09-15T22:49:47.923Z,13.43
2022-09-15T22:52:14.364Z,13.45
2022-09-15T22:54:40.747Z,13.49
2022-09-15T22:57:07.581Z,13.46
2022-09-15T22:59:33.951Z,13.40
2022-09-15T23:02:00.455Z,13.40
2022-09-15T23:04:26.939Z,13.42
2022-09-15T23:06:53.324Z,13.39
2022-09-15T23:09:19.694Z,13.33
2022-09-15T23:11:46.102Z,13.30
2022-09-15T23:14:14.911Z,13.33
2022-09-15T23:16:42.833Z,13.30
2022-09-15T23:19:11.861Z,13.23
2022-09-15T23:21:38.259Z,13.13
2022-09-15T23:24:04.733Z,13.19
2022-09-15T23:26:31.168Z,13.09
2022-09-15T23:28:57.557Z,13.07
2022-09-15T23:31:24.018Z,13.05
2022-09-15T23:33:50.634Z,13.06
2022-09-15T23:36:19.516Z,13.01
2022-09-15T23:38:46.290Z,13.03
2022-09-15T23:41:13.036Z,12.97
2022-09-15T23:43:39.547Z,13.00
2022-09-15T23:46:06.083Z,12.97
2022-09-15T23:48:32.604Z,12.76
2022-09-15T23:50:59.294Z,12.72
2022-09-15T23:53:25.771Z,12.75
2022-09-15T23:55:52.236Z,12.70
2022-09-15T23:58:18.721Z,12.66
